createdAt,value
2023-03-24T00:02:20.123Z,12.20
2023-03-24T00:04:49.750Z,12.22
2023-03-24T00:07:17.326Z,12.23
2023-03-24T00:09:45.899Z,12.21
2023-03-24T00:12:14.784Z,12.22
2023-03-24T00:14:42.508Z,12.28
2023-03-24T00:17:10.077Z,12.31
2023-03-24T00:19:38.637Z,12.31
2023-03-24T00:22:08.296Z,12.33
2023-03-24T00:24:36.074Z,12.38
2023-03-24T00:27:03.934Z,12.42
2023-03-24T00:29:31.536Z,12.43
2023-03-24T00:31:59.563Z,12.47
2023-03-24T00:34:27.307Z,12.44
2023-03-24T00:36:54.811Z,12.47
2023-03-24T00:39:22.413Z,12.51
2023-03-24T00:41:50.026Z,12.54
2023-03-24T00:44:20.654Z,12.56
2023-03-24T00:46:57.145Z,12.60
2023-03-24T00:49:44.790Z,12.60
2023-03-24T00:52:18.320Z,12.63
2023-03-24T00:54:46.572Z,12.69
2023-03-24T00:57:21.973Z,12.75
2023-03-24T00:59:50.482Z,12.71
2023-03-24T01:02:22.474Z,12.71
2023-03-24T01:04:57.629Z,12.71
2023-03-24T01:07:27.299Z,12.70
2023-03-24T01:09:58.073Z,12.75
2023-03-24T01:12:30.189Z,12.72
2023-03-24T01:15:00.485Z,12.74
2023-03-24T01:17:29.805Z,12.77
2023-03-24T01:19:57.908Z,12.71
2023-03-24T01:22:30.931Z,12.75
2023-03-24T01:25:00.968Z,12.77
2023-03-24T01:27:28.528Z,12.82
2023-03-24T01:30:02.380Z,12.86
2023-03-24T01:32:29.857Z,12.90
2023-03-24T01:34:57.273Z,12.95
2023-03-24T01:37:24.834Z,12.99
2023-03-24T01:39:52.314Z,12.99
2023-03-24T01:42:23.060Z,12.99
2023-03-24T01:44:54.368Z,12.96
2023-03-24T01:47:21.987Z,12.96
2023-03-24T01:49:59.410Z,12.91
2023-03-24T01:52:31.696Z,12.90
2023-03-24T01:55:14.298Z,12.92
2023-03-24T01:57:46.518Z,12.85
2023-03-24T02:00:18.290Z,12.84
2023-03-24T02:03:21.127Z,12.81
2023-03-24T02:05:57.787Z,12.80
2023-03-24T02:08:36.880Z,12.73
2023-03-24T02:11:04.850Z,12.69
2023-03-24T02:13:42.020Z,12.66
2023-03-24T02:16:28.346Z,12.63
2023-03-24T02:19:12.707Z,12.69
2023-03-24T02:21:43.723Z,12.61
2023-03-24T02:24:47.629Z,12.51
2023-03-24T02:27:35.018Z,12.50
2023-03-24T02:30:18.672Z,12.44
2023-03-24T02:33:04.353Z,12.39
2023-03-24T02:36:10.806Z,12.36
2023-03-24T02:39:06.530Z,12.28
2023-03-24T02:41:43.642Z,12.30
2023-03-24T02:44:22.360Z,12.33
2023-03-24T02:47:01.433Z,12.32
2023-03-24T02:49:46.519Z,12.31
2023-03-24T02:52:24.660Z,12.25
2023-03-24T02:54:59.388Z,12.21
2023-03-24T02:57:29.734Z,12.13
2023-03-24T03:00:33.897Z,12.07
2023-03-24T03:03:12.539Z,12.11
2023-03-24T03:05:58.741Z,12.10
2023-03-24T03:08:32.566Z,12.12
2023-03-24T03:11:03.215Z,12.18
2023-03-24T03:13:43.837Z,12.10
2023-03-24T03:16:25.651Z,12.13
2023-03-24T03:19:01.626Z,12.11
2023-03-24T03:21:40.339Z,12.07
2023-03-24T03:24:15.800Z,12.12
2023-03-24T03:26:46.270Z,12.12
2023-03-24T03:29:22.179Z,12.15
2023-03-24T03:32:05.762Z,12.06
2023-03-24T03:35:10.422Z,12.01
2023-03-24T03:38:05.614Z,11.98
2023-03-24T03:40:37.420Z,11.91
2023-03-24T03:43:13.234Z,11.89
2023-03-24T03:45:41.208Z,11.92
2023-03-24T03:48:10.228Z,11.87
2023-03-24T03:50:39.193Z,11.85
2023-03-24T03:53:09.880Z,11.76
2023-03-24T03:55:38.338Z,11.71
2023-03-24T03:58:06.307Z,11.64
2023-03-24T04:00:55.961Z,11.68
2023-03-24T04:06:36.277Z,11.62
2023-03-24T04:09:27.529Z,11.65
2023-03-24T04:12:10.375Z,11.63
2023-03-24T04:15:01.595Z,11.60
2023-03-24T04:18:09.328Z,11.61
2023-03-24T04:21:28.614Z,11.61
2023-03-24T04:24:19.321Z,11.54
2023-03-24T04:26:54.733Z,11.53
2023-03-24T04:29:33.448Z,11.52
2023-03-24T04:32:11.363Z,11.44
2023-03-24T04:34:45.238Z,11.50
2023-03-24T04:37:45.499Z,11.52
2023-03-24T04:40:21.182Z,11.55
2023-03-24T04:42:53.045Z,11.55
2023-03-24T04:45:25.854Z,11.51
2023-03-24T04:48:26.388Z,11.55
2023-03-24T04:51:16.244Z,11.56
2023-03-24T04:54:04.802Z,11.54
2023-03-24T04:56:42.169Z,11.55
2023-03-24T04:59:15.835Z,11.58
2023-03-24T05:01:50.780Z,11.59
2023-03-24T05:04:28.867Z,11.62
2023-03-24T05:07:05.007Z,11.58
2023-03-24T05:09:32.978Z,11.56
2023-03-24T05:12:02.275Z,11.59
2023-03-24T05:14:35.632Z,11.56
2023-03-24T05:17:05.466Z,11.54
2023-03-24T05:19:34.157Z,11.61
2023-03-24T05:22:01.971Z,11.59
2023-03-24T05:24:30.622Z,11.64
2023-03-24T05:26:58.069Z,11.60
2023-03-24T05:29:25.570Z,11.56
2023-03-24T05:31:53.069Z,11.66
2023-03-24T05:34:23.072Z,11.69
2023-03-24T05:37:04.528Z,11.71
2023-03-24T05:39:32.218Z,11.78
2023-03-24T05:42:07.714Z,11.79
2023-03-24T05:44:35.376Z,11.78
2023-03-24T05:47:06.163Z,11.75
2023-03-24T05:49:33.635Z,11.82
2023-03-24T05:52:01.683Z,11.90
2023-03-24T05:54:29.869Z,11.94
2023-03-24T05:57:14.842Z,12.06
2023-03-24T06:00:05.273Z,12.13
2023-03-24T06:02:51.417Z,12.27
2023-03-24T06:05:41.019Z,12.42
2023-03-24T06:08:10.032Z,12.53
2023-03-24T06:10:38.235Z,12.57
2023-03-24T06:13:08.781Z,12.57
2023-03-24T06:15:39.783Z,12.57
2023-03-24T06:18:27.455Z,12.57
2023-03-24T06:20:57.294Z,12.50
2023-03-24T06:23:29.652Z,12.49
2023-03-24T06:26:09.671Z,12.50
2023-03-24T06:28:42.630Z,12.49
2023-03-24T06:31:19.332Z,12.50
2023-03-24T06:33:52.393Z,12.49
2023-03-24T06:36:20.850Z,12.61
2023-03-24T06:38:48.910Z,12.74
2023-03-24T06:41:19.901Z,12.85
2023-03-24T06:43:51.384Z,12.86
2023-03-24T06:46:19.196Z,12.96
2023-03-24T06:48:49.292Z,12.98
2023-03-24T06:51:17.777Z,13.00
2023-03-24T06:53:47.043Z,13.08
2023-03-24T06:56:17.654Z,13.06
2023-03-24T06:58:51.762Z,13.14
2023-03-24T07:01:28.681Z,13.15
2023-03-24T07:03:59.568Z,13.19
2023-03-24T07:06:50.943Z,13.26
2023-03-24T07:09:27.276Z,13.25
2023-03-24T07:11:54.851Z,13.30
2023-03-24T07:14:26.266Z,13.30
2023-03-24T07:16:55.104Z,13.35
2023-03-24T07:19:41.501Z,13.38
2023-03-24T07:22:32.678Z,13.36
2023-03-24T07:25:20.089Z,13.38
2023-03-24T07:27:58.545Z,13.38
2023-03-24T07:30:37.171Z,13.38
2023-03-24T07:33:10.261Z,13.40
2023-03-24T07:35:42.136Z,13.56
2023-03-24T07:38:11.087Z,13.63
2023-03-24T07:40:38.920Z,13.71
2023-03-24T07:43:09.151Z,13.79
2023-03-24T07:46:12.235Z,14.00
2023-03-24T07:48:40.042Z,14.19
2023-03-24T07:51:07.593Z,14.20
2023-03-24T07:53:57.833Z,14.37
2023-03-24T07:56:36.553Z,14.54
2023-03-24T07:59:05.125Z,14.54
2023-03-24T08:01:57.602Z,14.60
2023-03-24T08:04:56.581Z,14.68
2023-03-24T08:07:43.593Z,14.82
2023-03-24T08:10:17.872Z,15.00
2023-03-24T08:12:45.523Z,15.17
2023-03-24T08:15:13.630Z,15.09
2023-03-24T08:17:41.377Z,15.20
2023-03-24T08:20:15.160Z,15.07
2023-03-24T08:22:44.816Z,14.86
2023-03-24T08:25:13.493Z,14.81
2023-03-24T08:27:43.557Z,14.52
2023-03-24T08:30:15.129Z,14.40
2023-03-24T08:32:50.594Z,14.22
2023-03-24T08:35:21.292Z,14.04
2023-03-24T08:37:48.875Z,14.07
2023-03-24T08:40:21.081Z,14.09
2023-03-24T08:42:50.564Z,14.05
2023-03-24T08:45:23.937Z,14.08
2023-03-24T08:47:52.642Z,14.19
2023-03-24T08:50:24.120Z,14.13
2023-03-24T08:52:51.692Z,14.13
2023-03-24T08:55:21.177Z,14.18
2023-03-24T08:57:49.875Z,14.24
2023-03-24T09:00:21.019Z,14.28
2023-03-24T09:02:52.618Z,14.39
2023-03-24T09:05:32.758Z,14.44
2023-03-24T09:08:04.627Z,14.61
2023-03-24T09:10:32.144Z,14.70
2023-03-24T09:12:59.708Z,14.78
2023-03-24T09:15:27.171Z,14.84
2023-03-24T09:17:57.738Z,14.87
2023-03-24T09:20:25.897Z,15.04
2023-03-24T09:22:53.341Z,15.11
2023-03-24T09:25:21.683Z,15.13
2023-03-24T09:27:49.409Z,15.10
2023-03-24T09:30:18.601Z,15.18
2023-03-24T09:32:46.648Z,15.33
2023-03-24T09:35:15.207Z,15.37
2023-03-24T09:37:44.167Z,15.37
2023-03-24T09:40:25.367Z,15.31
2023-03-24T09:43:00.686Z,15.44
2023-03-24T09:45:33.182Z,15.48
2023-03-24T09:48:12.922Z,15.49
2023-03-24T09:51:06.697Z,15.52
2023-03-24T09:53:57.414Z,15.66
2023-03-24T09:56:26.745Z,15.87
2023-03-24T09:59:03.152Z,16.08
2023-03-24T10:01:31.086Z,16.27
2023-03-24T10:04:00.684Z,16.38
2023-03-24T10:06:42.105Z,16.57
2023-03-24T10:09:31.137Z,16.65
2023-03-24T10:12:21.455Z,16.62
2023-03-24T10:15:11.832Z,16.69
2023-03-24T10:18:06.557Z,16.67
2023-03-24T10:20:47.794Z,16.49
2023-03-24T10:23:34.565Z,16.36
2023-03-24T10:26:37.751Z,16.18
2023-03-24T10:29:30.460Z,16.23
2023-03-24T10:32:02.824Z,16.31
2023-03-24T10:34:39.180Z,16.36
2023-03-24T10:37:07.564Z,16.38
2023-03-24T10:39:44.302Z,16.36
2023-03-24T10:42:18.766Z,16.54
2023-03-24T10:44:49.856Z,16.86
2023-03-24T10:47:24.428Z,17.00
2023-03-24T10:50:14.090Z,16.86
2023-03-24T10:52:47.528Z,16.69
2023-03-24T10:55:20.402Z,16.54
2023-03-24T10:57:59.398Z,16.69
2023-03-24T11:00:32.102Z,17.08
2023-03-24T11:03:04.379Z,17.33
2023-03-24T11:05:38.365Z,17.64
2023-03-24T11:08:14.767Z,17.85
2023-03-24T11:10:42.274Z,18.01
2023-03-24T11:13:38.791Z,18.26
2023-03-24T11:16:17.233Z,18.27
2023-03-24T11:19:04.670Z,17.97
2023-03-24T11:21:35.694Z,17.74
2023-03-24T11:24:11.415Z,17.28
2023-03-24T11:26:41.120Z,17.20
2023-03-24T11:29:18.847Z,17.25
2023-03-24T11:31:59.208Z,17.36
2023-03-24T11:34:34.552Z,17.36
2023-03-24T11:37:19.722Z,17.24
2023-03-24T11:40:15.815Z,17.00
2023-03-24T11:42:46.116Z,17.06
2023-03-24T11:45:24.130Z,17.05
2023-03-24T11:47:54.302Z,17.00
2023-03-24T11:50:27.593Z,17.10
2023-03-24T11:53:04.232Z,17.08
2023-03-24T11:55:49.885Z,17.11
2023-03-24T11:58:51.037Z,17.17
2023-03-24T12:01:24.352Z,17.37
2023-03-24T12:04:27.316Z,17.84
2023-03-24T12:07:39.816Z,17.88
2023-03-24T12:10:24.106Z,17.74
2023-03-24T12:13:03.763Z,17.60
2023-03-24T12:15:34.445Z,17.54
2023-03-24T12:18:20.091Z,17.27
2023-03-24T12:20:57.114Z,17.32
2023-03-24T12:24:06.724Z,17.35
2023-03-24T12:26:35.177Z,17.81
2023-03-24T12:29:14.548Z,18.19
2023-03-24T12:31:42.022Z,18.36
2023-03-24T12:34:15.278Z,18.46
2023-03-24T12:37:19.735Z,18.19
2023-03-24T12:40:22.819Z,18.09
2023-03-24T12:43:06.419Z,17.57
2023-03-24T12:45:39.804Z,17.39
2023-03-24T12:48:19.038Z,17.03
2023-03-24T12:50:55.680Z,16.64
2023-03-24T12:53:44.904Z,16.38
2023-03-24T12:56:18.542Z,16.18
2023-03-24T12:59:27.270Z,15.92
2023-03-24T13:02:36.185Z,15.64
2023-03-24T13:05:07.973Z,15.72
2023-03-24T13:07:39.499Z,15.67
2023-03-24T13:10:20.524Z,15.72
2023-03-24T13:13:14.046Z,15.72
2023-03-24T13:15:58.919Z,15.70
2023-03-24T13:18:48.487Z,15.82
2023-03-24T13:21:21.418Z,15.94
2023-03-24T13:24:10.564Z,16.04
2023-03-24T13:27:05.684Z,16.17
2023-03-24T13:29:49.433Z,16.24
2023-03-24T13:32:20.301Z,16.32
2023-03-24T13:35:07.398Z,16.23
2023-03-24T13:37:48.793Z,16.26
2023-03-24T13:40:28.254Z,16.32
2023-03-24T13:42:58.347Z,16.19
2023-03-24T13:45:44.691Z,16.22
2023-03-24T13:48:12.162Z,16.05
2023-03-24T13:51:01.653Z,15.93
2023-03-24T13:53:44.198Z,15.92
2023-03-24T13:56:23.169Z,15.99
2023-03-24T13:59:30.644Z,15.96
2023-03-24T14:02:23.062Z,16.01
2023-03-24T14:05:02.645Z,16.21
2023-03-24T14:07:41.083Z,16.32
2023-03-24T14:10:14.797Z,16.29
2023-03-24T14:13:05.538Z,16.39
2023-03-24T14:15:34.600Z,16.34
2023-03-24T14:18:24.029Z,16.05
2023-03-24T14:20:57.809Z,14.43
2023-03-24T14:23:40.499Z,12.74
2023-03-24T14:26:20.105Z,12.17
2023-03-24T14:28:50.637Z,11.74
2023-03-24T14:31:29.344Z,11.46
2023-03-24T14:34:02.367Z,11.45
2023-03-24T14:36:39.733Z,11.65
2023-03-24T14:39:30.414Z,11.83
2023-03-24T14:41:59.222Z,12.09
2023-03-24T14:44:45.348Z,12.03
2023-03-24T14:47:18.822Z,12.06
2023-03-24T14:49:49.002Z,11.97
2023-03-24T14:52:24.994Z,11.85
2023-03-24T14:54:59.518Z,11.58
2023-03-24T14:57:34.748Z,11.55
2023-03-24T15:00:15.215Z,11.60
2023-03-24T15:02:51.158Z,11.63
2023-03-24T15:05:21.916Z,11.44
2023-03-24T15:08:23.557Z,11.57
2023-03-24T15:10:55.830Z,11.74
2023-03-24T15:13:32.270Z,11.74
2023-03-24T15:16:01.676Z,11.76
2023-03-24T15:18:29.293Z,11.68
2023-03-24T15:20:57.703Z,11.60
2023-03-24T15:23:28.423Z,11.51
2023-03-24T15:25:56.368Z,11.42
2023-03-24T15:28:29.527Z,11.45
2023-03-24T15:31:01.472Z,11.31
2023-03-24T15:33:35.348Z,11.17
2023-03-24T15:36:04.010Z,11.11
2023-03-24T15:38:33.670Z,11.11
2023-03-24T15:41:10.054Z,11.10
2023-03-24T15:43:52.104Z,11.03
2023-03-24T15:46:31.521Z,10.95
2023-03-24T15:49:00.256Z,10.79
2023-03-24T15:51:51.025Z,10.78
2023-03-24T15:54:40.875Z,10.85
2023-03-24T15:57:23.185Z,10.88
2023-03-24T16:00:06.674Z,10.83
2023-03-24T16:02:57.825Z,10.88
2023-03-24T16:05:31.256Z,10.90
2023-03-24T16:08:01.624Z,10.91
2023-03-24T16:10:39.754Z,10.90
2023-03-24T16:13:15.074Z,10.83
2023-03-24T16:16:03.863Z,10.73
2023-03-24T16:18:33.942Z,10.78
2023-03-24T16:21:04.254Z,10.77
2023-03-24T16:23:32.224Z,10.88
2023-03-24T16:25:59.643Z,10.94
2023-03-24T16:28:27.860Z,10.94
2023-03-24T16:31:03.539Z,10.99
2023-03-24T16:33:32.467Z,10.98
2023-03-24T16:36:00.848Z,10.97
2023-03-24T16:38:28.494Z,11.01
2023-03-24T16:40:57.904Z,11.03
2023-03-24T16:43:27.494Z,11.09
2023-03-24T16:45:55.098Z,11.09
2023-03-24T16:48:22.665Z,11.10
2023-03-24T16:50:51.894Z,11.11
2023-03-24T16:53:19.587Z,11.05
2023-03-24T16:55:47.795Z,11.07
2023-03-24T16:58:16.816Z,11.00
2023-03-24T17:00:45.948Z,10.96
2023-03-24T17:03:14.175Z,10.92
2023-03-24T17:05:50.792Z,10.99
2023-03-24T17:08:19.135Z,10.96
2023-03-24T17:10:49.455Z,10.90
2023-03-24T17:13:22.371Z,10.92
2023-03-24T17:15:51.269Z,10.88
2023-03-24T17:18:19.564Z,10.76
2023-03-24T17:20:48.350Z,10.72
2023-03-24T17:23:18.780Z,10.70
2023-03-24T17:25:46.349Z,10.61
2023-03-24T17:28:17.616Z,10.68
2023-03-24T17:30:45.112Z,10.56
2023-03-24T17:33:15.990Z,10.56
2023-03-24T17:35:46.779Z,10.53
2023-03-24T17:38:16.723Z,10.50
2023-03-24T17:40:44.782Z,10.48
2023-03-24T17:43:12.468Z,10.38
2023-03-24T17:45:41.456Z,10.43
2023-03-24T17:48:08.885Z,10.43
2023-03-24T17:50:36.545Z,10.41
2023-03-24T17:53:04.050Z,10.40
2023-03-24T17:55:31.528Z,10.34
2023-03-24T17:57:58.970Z,10.32
2023-03-24T18:00:26.609Z,10.30
2023-03-24T18:02:54.250Z,10.27
2023-03-24T18:05:21.818Z,10.30
2023-03-24T18:07:49.860Z,10.29
2023-03-24T18:10:17.565Z,10.27
2023-03-24T18:12:45.442Z,10.21
2023-03-24T18:15:12.990Z,10.22
2023-03-24T18:17:40.809Z,10.20
2023-03-24T18:20:14.927Z,10.23
2023-03-24T18:22:42.574Z,10.24
2023-03-24T18:25:11.857Z,10.19
2023-03-24T18:27:41.079Z,10.14
2023-03-24T18:30:11.169Z,10.14
2023-03-24T18:32:39.826Z,10.10
2023-03-24T18:35:09.206Z,10.06
2023-03-24T18:37:37.340Z,10.05
2023-03-24T18:40:09.146Z,10.05
2023-03-24T18:42:37.565Z,10.00
2023-03-24T18:45:07.188Z,10.01
2023-03-24T18:47:35.261Z,9.99
2023-03-24T18:50:02.844Z,10.00
2023-03-24T18:52:30.816Z,9.87
2023-03-24T18:54:59.550Z,9.85
2023-03-24T18:57:27.120Z,9.87
2023-03-24T18:59:54.586Z,9.85
2023-03-24T19:02:22.569Z,9.82
2023-03-24T19:04:49.979Z,9.78
2023-03-24T19:07:24.500Z,9.77
2023-03-24T19:09:52.873Z,9.77
2023-03-24T19:12:20.435Z,9.74
2023-03-24T19:14:47.985Z,9.68
2023-03-24T19:17:15.446Z,9.62
2023-03-24T19:19:43.625Z,9.70
2023-03-24T19:22:11.116Z,9.67
2023-03-24T19:24:38.649Z,9.65
2023-03-24T19:27:07.479Z,9.70
2023-03-24T19:29:35.157Z,9.68
2023-03-24T19:32:02.577Z,9.68
2023-03-24T19:34:31.146Z,9.61
2023-03-24T19:36:58.561Z,9.62
2023-03-24T19:39:26.594Z,9.62
2023-03-24T19:41:54.600Z,9.54
2023-03-24T19:44:22.583Z,9.49
2023-03-24T19:46:50.091Z,9.48
2023-03-24T19:49:17.648Z,9.41
2023-03-24T19:51:45.157Z,9.51
2023-03-24T19:54:12.583Z,9.45
2023-03-24T19:56:40.079Z,9.42
2023-03-24T19:59:07.719Z,9.38
2023-03-24T20:01:36.657Z,9.31
2023-03-24T20:04:04.614Z,9.27
2023-03-24T20:06:32.099Z,9.26
2023-03-24T20:08:59.613Z,9.24
2023-03-24T20:11:27.036Z,9.16
2023-03-24T20:13:54.466Z,9.12
2023-03-24T20:16:21.955Z,9.23
2023-03-24T20:18:49.457Z,9.19
2023-03-24T20:21:22.504Z,9.15
2023-03-24T20:23:51.172Z,9.14
2023-03-24T20:26:19.345Z,9.09
2023-03-24T20:28:47.356Z,9.11
2023-03-24T20:31:14.812Z,9.09
2023-03-24T20:33:42.475Z,9.08
2023-03-24T20:36:09.958Z,9.13
2023-03-24T20:38:37.556Z,9.19
2023-03-24T20:41:07.364Z,9.13
2023-03-24T20:43:37.224Z,9.14
2023-03-24T20:46:07.175Z,9.20
2023-03-24T20:48:36.004Z,9.21
2023-03-24T20:51:04.251Z,9.14
2023-03-24T20:53:36.106Z,9.11
2023-03-24T20:56:14.583Z,9.09
2023-03-24T20:58:44.647Z,9.11
2023-03-24T21:01:20.831Z,9.11
2023-03-24T21:03:53.106Z,9.09
2023-03-24T21:06:20.999Z,9.06
2023-03-24T21:08:48.511Z,9.09
2023-03-24T21:11:16.307Z,9.16
2023-03-24T21:13:43.995Z,9.17
2023-03-24T21:16:12.232Z,9.22
2023-03-24T21:18:42.762Z,9.14
2023-03-24T21:21:12.563Z,9.07
2023-03-24T21:23:41.989Z,9.06
2023-03-24T21:26:13.245Z,8.99
2023-03-24T21:28:41.205Z,8.91
2023-03-24T21:31:10.284Z,8.88
2023-03-24T21:33:40.913Z,8.89
2023-03-24T21:36:12.601Z,9.00
2023-03-24T21:38:40.658Z,8.98
2023-03-24T21:41:08.728Z,8.94
2023-03-24T21:43:37.047Z,8.94
2023-03-24T21:46:04.782Z,9.07
2023-03-24T21:48:40.133Z,9.15
2023-03-24T21:51:07.799Z,9.14
2023-03-24T21:53:35.316Z,9.20
2023-03-24T21:56:05.947Z,9.23
2023-03-24T21:58:34.928Z,9.25
2023-03-24T22:01:02.552Z,9.28
2023-03-24T22:03:30.673Z,9.31
2023-03-24T22:05:58.164Z,9.33
2023-03-24T22:08:30.849Z,9.34
2023-03-24T22:11:00.505Z,9.34
2023-03-24T22:13:28.997Z,9.33
2023-03-24T22:15:58.658Z,9.34
2023-03-24T22:18:28.204Z,9.33
2023-03-24T22:20:56.525Z,9.43
2023-03-24T22:23:24.110Z,9.44
2023-03-24T22:25:54.553Z,9.44
2023-03-24T22:28:22.123Z,9.50
2023-03-24T22:30:50.190Z,9.49
2023-03-24T22:33:17.863Z,9.56
2023-03-24T22:35:45.420Z,9.55
2023-03-24T22:38:15.142Z,9.56
2023-03-24T22:40:43.758Z,9.54
2023-03-24T22:43:11.394Z,9.57
2023-03-24T22:45:38.902Z,9.62
2023-03-24T22:48:06.773Z,9.69
2023-03-24T22:50:34.222Z,9.74
2023-03-24T22:53:01.756Z,9.77
2023-03-24T22:55:29.247Z,9.76
2023-03-24T22:57:56.751Z,9.85
2023-03-24T23:00:24.268Z,9.80
2023-03-24T23:02:51.825Z,9.85
2023-03-24T23:05:19.337Z,9.86
2023-03-24T23:07:47.525Z,9.85
2023-03-24T23:10:15.136Z,9.86
2023-03-24T23:12:44.155Z,9.87
2023-03-24T23:15:37.997Z,9.88
2023-03-24T23:18:05.882Z,9.80
2023-03-24T23:20:33.434Z,9.78
2023-03-24T23:23:01.482Z,9.75
2023-03-24T23:25:30.854Z,9.75
2023-03-24T23:27:59.236Z,9.67
2023-03-24T23:30:27.280Z,9.68
2023-03-24T23:32:54.794Z,9.67
2023-03-24T23:35:22.226Z,9.68
2023-03-24T23:37:50.016Z,9.62
2023-03-24T23:40:18.101Z,9.58
2023-03-24T23:42:47.514Z,9.52
2023-03-24T23:45:18.293Z,9.44
2023-03-24T23:47:49.906Z,9.44
2023-03-24T23:50:19.718Z,9.42
2023-03-24T23:52:47.966Z,9.40
2023-03-24T23:55:18.219Z,9.36
2023-03-24T23:57:46.883Z,9.44
